sensor_id;sensor_type;location;lat;lon;timestamp;pressure;altitude;pressure_sealevel;temperature;humidity
71642;BME280;60657;50.122;14.468;2022-11-11T00:00:15;99740.16276165833;;;9.287785152971693;80.38513771267262
71642;BME280;60657;50.122;14.468;2022-11-11T00:03:29;99746.63051275791;;;9.188982986190588;80.84100099183642
71642;BME280;60657;50.122;14.468;2022-11-11T00:06:43;99748.39082188177;;;9.253070878156713;80.43472953383689
71642;BME280;60657;50.122;14.468;2022-11-11T00:09:58;99749.15614128718;;;9.234378576333256;80.62546730754559
71642;BME280;60657;50.122;14.468;2022-11-11T00:13:12;99751.41142048313;;;9.20500495918212;80.61211566338598
71642;BME280;60657;50.122;14.468;2022-11-11T00:16:25;99753.97615445318;;;9.16227969787137;81.02029449912261
71642;BME280;60657;50.122;14.468;2022-11-11T00:19:39;99764.88318140825;;;9.114213778896776;81.138551918822
71642;BME280;60657;50.122;14.468;2022-11-11T00:22:52;99748.96330272662;;;9.148928053711757;81.0374608987564
71642;BME280;60657;50.122;14.468;2022-11-11T00:26:06;99750.53049498555;;;9.023422598611432;81.31975280384528
71642;BME280;60657;50.122;14.468;2022-11-11T00:29:21;99750.53049498555;;;9.159609369039444;80.96307316701
71642;BME280;60657;50.122;14.468;2022-11-11T00:32:35;99759.59661899005;;;9.114213778896776;81.08896009765775
71642;BME280;60657;50.122;14.468;2022-11-11T00:35:48;99746.43754422464;;;9.148928053711757;81.06797894254979
71642;BME280;60657;50.122;14.468;2022-11-11T00:39:06;99757.99108888363;;;9.11154345006485;81.08323796444648
71642;BME280;60657;50.122;14.468;2022-11-11T00:42:19;99763.00409495749;;;9.122224765392538;81.04318303196766
71642;BME280;60657;50.122;14.468;2022-11-11T00:45:32;99762.12277055487;;;9.11154345006485;80.99740596627755
71642;BME280;60657;50.122;14.468;2022-11-11T00:48:46;99774.5966241617;;;9.151598382543682;80.93446250095369
71642;BME280;60657;50.122;14.468;2022-11-11T00:52:02;99772.14912874167;;;9.100862134737163;80.93636987869077
71642;BME280;60657;50.122;14.468;2022-11-11T00:55:15;99769.3848147653;;;9.074158846417944;81.09277485313191
71642;BME280;60657;50.122;14.468;2022-11-11T00:58:29;99762.80691871997;;;9.079499504081788;81.03364614328221
71642;BME280;60657;50.122;14.468;2022-11-11T01:01:42;99776.08233201518;;;9.063477531090257;81.2434576943618
71642;BME280;60657;50.122;14.468;2022-11-11T01:04:56;99775.20015235482;;;9.063477531090257;81.35790035858702
71642;BME280;60657;50.122;14.468;2022-11-11T01:08:09;99784.34446977811;;;9.066147859922182;81.22438391699092
71642;BME280;60657;50.122;14.468;2022-11-11T01:11:23;99770.82823263167;;;8.868543526359957;81.53147173266194
71642;BME280;60657;50.122;14.468;2022-11-11T01:14:37;99781.57489648725;;;8.983367666132601;81.49713893339437
71642;BME280;60657;50.122;14.468;2022-11-11T01:17:51;99779.97157399224;;;9.002059967956058;81.62302586404212
71642;BME280;60657;50.122;14.468;2022-11-11T01:21:05;99789.11519281872;;;9.002059967956058;81.66880292973221
71642;BME280;60657;50.122;14.468;2022-11-11T01:24:20;99780.85437702735;;;9.044785229266807;81.41512169069962
71642;BME280;60657;50.122;14.468;2022-11-11T01:27:34;99787.43048708826;;;8.972686350804914;81.70695048447395
71642;BME280;60657;50.122;14.468;2022-11-11T01:30:47;99791.80438941134;;;9.082169832913713;81.13664454108492
71642;BME280;60657;50.122;14.468;2022-11-11T01:34:01;99794.25057447945;;;9.047455558098726;81.25108720531014
71642;BME280;60657;50.122;14.468;2022-11-11T01:37:15;99787.59276888442;;;9.050125886930651;81.19958800640879
71642;BME280;60657;50.122;14.468;2022-11-11T01:40:29;99802.18333127844;;;8.913939116502632;81.65354390783551
71642;BME280;60657;50.122;14.468;2022-11-11T01:43:42;99797.12837131777;;;8.935301747158007;81.69359884031434
71642;BME280;60657;50.122;14.468;2022-11-11T01:46:56;99798.05362991586;;;8.935301747158007;81.60013733119708
71642;BME280;60657;50.122;14.468;2022-11-11T01:50:14;99786.30083404711;;;8.908598458838789;81.62874799725337
71642;BME280;60657;50.122;14.468;2022-11-11T01:53:29;99793.84133661323;;;8.91660944533455;81.55626764324407
71642;BME280;60657;50.122;14.468;2022-11-11T01:56:43;99790.47157163963;;;8.903257801174945;81.60776684214542
71642;BME280;60657;50.122;14.468;2022-11-11T02:00:04;99783.73222752145;;;8.844510566872664;81.88815136949721
71642;BME280;60657;50.122;14.468;2022-11-11T02:03:21;99784.40819270392;;;8.78042267490654;82.01976043335623
71642;BME280;60657;50.122;14.468;2022-11-11T02:06:37;99785.20882325557;;;8.769741359578852;82.09224078736553
71642;BME280;60657;50.122;14.468;2022-11-11T02:09:51;99776.7425009578;;;8.705653467612727;82.34401464866102
71642;BME280;60657;50.122;14.468;2022-11-11T02:13:08;99776.0258004478;;;8.719005111772333;82.32875562676432
71642;BME280;60657;50.122;14.468;2022-11-11T02:16:26;99775.90007971517;;;8.697642481116958;82.20668345159075
71642;BME280;60657;50.122;14.468;2022-11-11T02:19:43;99774.17315599672;;;8.646906233310446;82.60341802090485
71642;BME280;60657;50.122;14.468;2022-11-11T02:23:02;99770.00323959823;;;8.660257877470052;82.50041962310216
71642;BME280;60657;50.122;14.468;2022-11-11T02:26:23;99776.53132197617;;;8.660257877470052;82.54238193331807
71642;BME280;60657;50.122;14.468;2022-11-11T02:29:40;99769.03416298874;;;8.617532616159302;82.52521553368429
71642;BME280;60657;50.122;14.468;2022-11-11T02:32:57;99766.50693828134;;;8.572137026016634;82.69497215228503
71642;BME280;60657;50.122;14.468;2022-11-11T02:36:13;99777.28874520384;;;8.574807354848552;82.78652628366521
71642;BME280;60657;50.122;14.468;2022-11-11T02:39:28;99771.51905090535;;;8.604180971999696;82.59197375448234
71642;BME280;60657;50.122;14.468;2022-11-11T02:42:44;99765.49430451076;;;8.521400778210115;82.91622796978713
71642;BME280;60657;50.122;14.468;2022-11-11T02:45:57;99772.01954632092;;;8.48134584573129;83.0974288548104
71642;BME280;60657;50.122;14.468;2022-11-11T02:49:11;99774.54708430562;;;8.497367818722822;83.17563134203098
71642;BME280;60657;50.122;14.468;2022-11-11T02:52:25;99790.34012731201;;;8.486686503395134;83.19089036392768
71642;BME280;60657;50.122;14.468;2022-11-11T02:55:38;99792.02540544816;;;8.561455710688946;82.94102388036927
71642;BME280;60657;50.122;14.468;2022-11-11T02:58:52;99804.31745454799;;;8.510719462882427;83.04783703364615
71642;BME280;60657;50.122;14.468;2022-11-11T03:02:06;99806.97684870333;;;8.550774395361259;82.99633783474479
71642;BME280;60657;50.122;14.468;2022-11-11T03:05:20;99805.55130568301;;;8.65224689097429;82.49660486762798
71642;BME280;60657;50.122;14.468;2022-11-11T03:08:34;99811.45027614264;;;8.657587548638134;82.41649500267033
71642;BME280;60657;50.122;14.468;2022-11-11T03:11:47;99816.1602920406;;;8.56679636835279;82.69115739681087
71642;BME280;60657;50.122;14.468;2022-11-11T03:15:04;99810.3479028267;;;8.582818341344321;82.55191882200351
71642;BME280;60657;50.122;14.468;2022-11-11T03:18:18;99813.71901908058;;;8.590829327840083;82.42984664682994
71642;BME280;60657;50.122;14.468;2022-11-11T03:21:32;99802.85016079768;;;8.532082093537802;82.49851224536508
71642;BME280;60657;50.122;14.468;2022-11-11T03:24:45;99805.16022633041;;;8.48134584573129;82.70260166323338
71642;BME280;60657;50.122;14.468;2022-11-11T03:27:59;99810.2169386232;;;8.54276340886549;82.57099259937438
71642;BME280;60657;50.122;14.468;2022-11-11T03:31:13;99804.8068683899;;;8.361181048294803;82.96963454642557
71642;BME280;60657;50.122;14.468;2022-11-11T03:34:26;99794.87080542196;;;8.307774471656366;83.42168307011521
71642;BME280;60657;50.122;14.468;2022-11-11T03:37:40;99795.49119601746;;;8.289082169832916;83.40451667048143
71642;BME280;60657;50.122;14.468;2022-11-11T03:40:54;99796.90729613605;;;8.238345922026397;83.63340199893187
71642;BME280;60657;50.122;14.468;2022-11-11T03:44:09;99794.55883425561;;;8.305104142824447;83.63721675440604
71642;BME280;60657;50.122;14.468;2022-11-11T03:47:23;99801.03125079132;;;8.238345922026397;83.75356679636835
71642;BME280;60657;50.122;14.468;2022-11-11T03:50:36;99788.61421730468;;;8.198290989547573;83.85656519417105
71642;BME280;60657;50.122;14.468;2022-11-11T03:53:50;99793.35435636717;;;8.15022507057298;83.95956359197375
71642;BME280;60657;50.122;14.468;2022-11-11T03:57:04;99791.05251305655;;;8.187609674219885;83.84321355001144
71642;BME280;60657;50.122;14.468;2022-11-11T04:00:19;99791.71411192248;;;8.118181124589917;84.11596856641489
71642;BME280;60657;50.122;14.468;2022-11-11T04:03:34;99789.98284512575;;;8.051422903791867;84.35820553902495
71642;BME280;60657;50.122;14.468;2022-11-11T04:06:48;99803.10303869704;;;8.038071259632261;84.49362935835813
71642;BME280;60657;50.122;14.468;2022-11-11T04:10:01;99808.86559474914;;;8.048752574959948;84.20561532005799
71642;BME280;60657;50.122;14.468;2022-11-11T04:13:15;99812.09864124245;;;7.973983367666129;84.6309605554284
71642;BME280;60657;50.122;14.468;2022-11-11T04:16:29;99792.98731221646;;;8.02204928664073;84.37155718318456
71642;BME280;60657;50.122;14.468;2022-11-11T04:19:43;99805.44702837354;;;7.99000534065766;84.32578011749447
71642;BME280;60657;50.122;14.468;2022-11-11T04:22:57;99806.85316351308;;;7.91256580453193;84.67292286564431
71642;BME280;60657;50.122;14.468;2022-11-11T04:26:10;99806.71204573725;;;7.880521858548867;84.70534828717479
71642;BME280;60657;50.122;14.468;2022-11-11T04:29:24;99813.41007772044;;;7.909895475700004;84.54894331273366
71642;BME280;60657;50.122;14.468;2022-11-11T04:32:39;99808.3038503317;;;7.885862516212711;84.53559166857404
71642;BME280;60657;50.122;14.468;2022-11-11T04:35:53;99809.09965791745;;;7.8591592278934925;84.66720073243305
71642;BME280;60657;50.122;14.468;2022-11-11T04:39:06;99803.33955385906;;;7.811093308918899;84.556572823682
71642;BME280;60657;50.122;14.468;2022-11-11T04:42:20;99818.27997737128;;;7.909895475700004;84.42687113756008
71642;BME280;60657;50.122;14.468;2022-11-11T04:45:34;99805.8689169048;;;7.832455939574274;84.68055237659266
71642;BME280;60657;50.122;14.468;2022-11-11T04:48:48;99808.20904936055;;;7.728313115129318;85.06012054627298
71642;BME280;60657;50.122;14.468;2022-11-11T04:52:02;99813.17312011277;;;7.821774624246586;84.67673762111849
71642;BME280;60657;50.122;14.468;2022-11-11T04:55:16;99812.28225689677;;;7.781719691767755;84.78355077439537
71642;BME280;60657;50.122;14.468;2022-11-11T04:58:31;99807.12736340561;;;7.80308232242313;84.60425726710918
71642;BME280;60657;50.122;14.468;2022-11-11T05:01:47;99812.9340617327;;;7.7496757457846925;84.69390402075227
71642;BME280;60657;50.122;14.468;2022-11-11T05:05:00;99819.5359913166;;;7.744335088120849;84.48981460288395
71642;BME280;60657;50.122;14.468;2022-11-11T05:08:14;99823.41339972097;;;7.704280155642024;84.644312199588
71642;BME280;60657;50.122;14.468;2022-11-11T05:11:29;99827.53281863911;;;7.589456015869381;84.76066224155032
71642;BME280;60657;50.122;14.468;2022-11-11T05:14:44;99835.02605725688;;;7.680247196154724;84.50888838025483
71642;BME280;60657;50.122;14.468;2022-11-11T05:17:58;99830.0631193215;;;7.71763179980163;84.35439078355077
71642;BME280;60657;50.122;14.468;2022-11-11T05:21:12;99836.61495370057;;;7.648203250171662;84.61951628900587
71642;BME280;60657;50.122;14.468;2022-11-11T05:24:31;99838.4977094869;;;7.76035706111238;84.51651789120318
71642;BME280;60657;50.122;14.468;2022-11-11T05:27:45;99845.24566350537;;;7.811093308918899;84.15220874341955
71642;BME280;60657;50.122;14.468;2022-11-11T05:30:59;99842.71515139163;;;7.779049362935837;84.00152590218967
71642;BME280;60657;50.122;14.468;2022-11-11T05:34:13;99840.93051238185;;;7.706950484473943;83.94621194781415
71642;BME280;60657;50.122;14.468;2022-11-11T05:37:26;99844.2066542718;;;7.693598840314337;84.39444571602961
71642;BME280;60657;50.122;14.468;2022-11-11T05:40:40;99836.01604146804;;;7.757686732280462;83.86800946059357
71642;BME280;60657;50.122;14.468;2022-11-11T05:43:53;99835.12382643162;;;7.698939497978181;84.00152590218967
71642;BME280;60657;50.122;14.468;2022-11-11T05:47:07;99830.01422587814;;;7.706950484473943;84.04730296787976
71642;BME280;60657;50.122;14.468;2022-11-11T05:50:21;99826.493179913;;;7.709620813305868;84.12550545510032
71642;BME280;60657;50.122;14.468;2022-11-11T05:53:34;99827.67907141827;;;7.733653772793161;84.0129701686122
71642;BME280;60657;50.122;14.468;2022-11-11T05:56:48;99811.2475585946;;;7.811093308918899;83.92713817044327
71642;BME280;60657;50.122;14.468;2022-11-11T06:00:03;99821.27077048905;;;7.755016403448536;84.14648661020829
71642;BME280;60657;50.122;14.468;2022-11-11T06:03:17;99833.92088430886;;;7.856488899061567;83.83176928358893
71642;BME280;60657;50.122;14.468;2022-11-11T06:06:31;99832.47307360945;;;7.957961394674598;83.4960708018616
71642;BME280;60657;50.122;14.468;2022-11-11T06:09:45;99824.27731522737;;;7.995345998321504;83.3205920500496
71642;BME280;60657;50.122;14.468;2022-11-11T06:12:59;99835.89388286346;;;7.9179064621957735;83.32822156099795
71642;BME280;60657;50.122;14.468;2022-11-11T06:16:13;99830.78644153598;;;7.957961394674598;83.31486991683833
71642;BME280;60657;50.122;14.468;2022-11-11T06:19:26;99838.18567746849;;;7.925917448691536;83.43503471427482
71642;BME280;60657;50.122;14.468;2022-11-11T06:22:40;99852.09096189745;;;7.722972457465474;83.86991683833067
71642;BME280;60657;50.122;14.468;2022-11-11T06:25:54;99849.60885318714;;;7.893873502708473;83.77454795147631
71642;BME280;60657;50.122;14.468;2022-11-11T06:29:08;99857.89875232127;;;7.872510872053098;83.90234225986114
71642;BME280;60657;50.122;14.468;2022-11-11T06:32:22;99857.34515316802;;;8.003356984817273;83.43884946974899
71642;BME280;60657;50.122;14.468;2022-11-11T06:35:36;99882.12120936223;;;7.971313038834211;83.40451667048143
71642;BME280;60657;50.122;14.468;2022-11-11T06:38:52;99872.43301925511;;;8.054093232623792;83.27672236209659
71642;BME280;60657;50.122;14.468;2022-11-11T06:42:06;99881.7128669173;;;8.05676356145571;83.25574120698863
71642;BME280;60657;50.122;14.468;2022-11-11T06:45:19;99878.76719639475;;;8.200961318379491;82.9505607690547
71642;BME280;60657;50.122;14.468;2022-11-11T06:48:33;99873.09804719123;;;8.22766460669871;82.82276646066987
71642;BME280;60657;50.122;14.468;2022-11-11T06:51:47;99888.18766250454;;;8.283741512169073;82.55764095521477
71642;BME280;60657;50.122;14.468;2022-11-11T06:55:01;99867.61311604438;;;8.27038986800946;82.60914015411612
71642;BME280;60657;50.122;14.468;2022-11-11T06:58:16;99879.84602565611;;;8.246356908522166;82.77126726176851
71642;BME280;60657;50.122;14.468;2022-11-11T07:01:31;99879.28211849675;;;8.350499732967116;82.51377126726177
71642;BME280;60657;50.122;14.468;2022-11-11T07:04:45;99883.4994557816;;;8.411917296101322;82.22194247348745
71642;BME280;60657;50.122;14.468;2022-11-11T07:08:00;99878.10013039045;;;8.572137026016634;81.861448081178
71642;BME280;60657;50.122;14.468;2022-11-11T07:11:15;99879.7413863744;;;8.476005188067447;81.81757839322499
71642;BME280;60657;50.122;14.468;2022-11-11T07:14:29;99890.33970289341;;;8.46532387273976;82.1418326085298
71642;BME280;60657;50.122;14.468;2022-11-11T07:17:42;99883.16033497009;;;8.516060120546271;82.02929732204166
71642;BME280;60657;50.122;14.468;2022-11-11T07:20:56;99887.33189282703;;;8.540093080033571;82.02357518883039
71642;BME280;60657;50.122;14.468;2022-11-11T07:24:10;99877.66238441732;;;8.668268863965821;81.76798657206074
71642;BME280;60657;50.122;14.468;2022-11-11T07:27:23;99877.21796543236;;;8.79644464789807;81.19195849546044
71642;BME280;60657;50.122;14.468;2022-11-11T07:30:37;99890.57777752737;;;8.83916990920882;81.01266498817427
71642;BME280;60657;50.122;14.468;2022-11-11T07:33:51;99900.52095818167;;;8.817807278553445;81.01838712138552
71642;BME280;60657;50.122;14.468;2022-11-11T07:37:05;99889.02305324392;;;8.895246814679176;80.98405432211796
71642;BME280;60657;50.122;14.468;2022-11-11T07:40:20;99884.76296111003;;;8.863202868696114;81.04318303196766
71642;BME280;60657;50.122;14.468;2022-11-11T07:43:33;99884.67490362641;;;8.678950179293508;81.77752346074617
71642;BME280;60657;50.122;14.468;2022-11-11T07:46:47;99878.99203161187;;;8.751049057755395;81.79087510490578
71642;BME280;60657;50.122;14.468;2022-11-11T07:50:01;99879.96606596129;;;8.873884184023801;81.93965056839856
71642;BME280;60657;50.122;14.468;2022-11-11T07:53:17;99892.78669678142;;;8.98603799496452;81.08705271992065
71642;BME280;60657;50.122;14.468;2022-11-11T07:56:31;99901.0463260291;;;8.999389639124132;81.22056916151675
71642;BME280;60657;50.122;14.468;2022-11-11T07:59:45;99893.32671886007;;;8.889906157015332;81.3750667582208
71642;BME280;60657;50.122;14.468;2022-11-11T08:02:58;99893.50046302874;;;9.01007095445182;81.26825360494392
71642;BME280;60657;50.122;14.468;2022-11-11T08:06:12;99893.00075230487;;;9.114213778896776;80.96688792248416
71642;BME280;60657;50.122;14.468;2022-11-11T08:09:26;99898.14460313549;;;9.047455558098726;80.6369115739681
71642;BME280;60657;50.122;14.468;2022-11-11T08:12:42;99887.26881554999;;;9.122224765392538;80.72465094987412
71642;BME280;60657;50.122;14.468;2022-11-11T08:15:56;99875.08489653781;;;9.245059891660944;80.58731975280385
71642;BME280;60657;50.122;14.468;2022-11-11T08:19:10;99899.28227376229;;;9.271763179980162;80.27450980392157
71642;BME280;60657;50.122;14.468;2022-11-11T08:22:24;99912.68878399594;;;9.311818112458994;80.15625238422217
71642;BME280;60657;50.122;14.468;2022-11-11T08:25:37;99913.78123483824;;;9.448004882887005;79.72137026016632
71642;BME280;60657;50.122;14.468;2022-11-11T08:28:51;99920.73139456188;;;9.586861982146942;79.64316777294576
71642;BME280;60657;50.122;14.468;2022-11-11T08:32:05;99923.13803942829;;;9.496070801861599;79.83009079118028
71642;BME280;60657;50.122;14.468;2022-11-11T08:35:19;99925.83082792214;;;9.624246585793848;79.21210040436408
71642;BME280;60657;50.122;14.468;2022-11-11T08:38:33;99933.62096504463;;;9.736400396734567;79.11482413977264
71642;BME280;60657;50.122;14.468;2022-11-11T08:41:47;99936.5474361661;;;9.904631113145648;78.91264209964142
71642;BME280;60657;50.122;14.468;2022-11-11T08:45:01;99920.19324490878;;;9.968719005111772;78.69710841535057
71642;BME280;60657;50.122;14.468;2022-11-11T08:48:17;99922.56780085775;;;9.859235523002972;78.90310521095597
71642;BME280;60657;50.122;14.468;2022-11-11T08:51:31;99924.25359990707;;;9.888609140154117;78.63607232776378
71642;BME280;60657;50.122;14.468;2022-11-11T08:54:45;99925.28867294476;;;9.968719005111772;78.41863126573587
71642;BME280;60657;50.122;14.468;2022-11-11T08:57:59;99930.57340749177;;;10.144960708018615;77.96086060883498
71642;BME280;60657;50.122;14.468;2022-11-11T09:01:14;99936.22131204372;;;10.436026550698102;77.5297932402533
71642;BME280;60657;50.122;14.468;2022-11-11T09:04:28;99928.10468424505;;;10.860608834973675;76.03631647211414
71642;BME280;60657;50.122;14.468;2022-11-11T09:07:42;99930.18552762714;;;11.066224155031662;75.08834973678188
71642;BME280;60657;50.122;14.468;2022-11-11T09:10:56;99935.6851096657;;;11.2291142137789;74.37308308537423
71642;BME280;60657;50.122;14.468;2022-11-11T09:14:15;99941.63558690743;;;11.739147020675972;73.18860151064317
71642;BME280;60657;50.122;14.468;2022-11-11T09:17:34;99930.72511005483;;;12.182421606775009;71.68558785381857
71642;BME280;60657;50.122;14.468;2022-11-11T09:20:48;99941.58629647738;;;12.775234607461663;69.84496833752956
71642;BME280;60657;50.122;14.468;2022-11-11T09:24:02;99950.227284183;;;12.903410391393912;69.14496070801862
71642;BME280;60657;50.122;14.468;2022-11-11T09:27:16;99949.56162202836;;;13.018234531166556;68.4106202792401
71642;BME280;60657;50.122;14.468;2022-11-11T09:30:30;99951.30847778633;;;13.133058670939192;68.24277103837645
71642;BME280;60657;50.122;14.468;2022-11-11T09:33:44;99958.70673767885;;;12.988860914015412;68.53459983215076
71642;BME280;60657;50.122;14.468;2022-11-11T09:36:58;99964.57411759334;;;12.988860914015412;68.57846952010377
71642;BME280;60657;50.122;14.468;2022-11-11T09:40:14;99975.53379171297;;;13.042267490653849;68.65285725185015
71642;BME280;60657;50.122;14.468;2022-11-11T09:43:34;99972.78747850469;;;12.87136644541085;68.64904249637598
71642;BME280;60657;50.122;14.468;2022-11-11T09:46:57;99971.03616453102;;;12.879377431906612;69.16784924086366
71642;BME280;60657;50.122;14.468;2022-11-11T09:50:24;99984.2209620303;;;12.735179674982831;69.32616159304189
71642;BME280;60657;50.122;14.468;2022-11-11T09:53:40;99989.17527555765;;;12.727168688487069;69.48828870069428
71642;BME280;60657;50.122;14.468;2022-11-11T09:57:02;99986.5284351249;;;12.628366521705956;69.54169527733272
71642;BME280;60657;50.122;14.468;2022-11-11T10:00:25;99987.91130869879;;;12.436102845807582;70.30846112764172
71642;BME280;60657;50.122;14.468;2022-11-11T10:03:43;99981.88908907612;;;12.313267719539176;71.02372777904937
71642;BME280;60657;50.122;14.468;2022-11-11T10:07:05;99981.70455788006;;;12.161058976119634;71.88395513847563
71642;BME280;60657;50.122;14.468;2022-11-11T10:10:29;99982.49303316047;;;12.142366674296177;71.58449683375295
71642;BME280;60657;50.122;14.468;2022-11-11T10:13:52;99967.22950054267;;;12.11299305714504;72.25970855268177
71642;BME280;60657;50.122;14.468;2022-11-11T10:17:13;99958.91927102172;;;12.024872205691615;72.45807583733882
71642;BME280;60657;50.122;14.468;2022-11-11T10:20:42;99964.75823640506;;;12.129015030136571;72.6240177004654
71642;BME280;60657;50.122;14.468;2022-11-11T10:24:10;99962.39424990884;;;12.118333714808884;72.1528953994049
71642;BME280;60657;50.122;14.468;2022-11-11T10:27:29;99956.33930522276;;;11.915388723582815;72.83764400701915
71642;BME280;60657;50.122;14.468;2022-11-11T10:30:45;99952.07516749519;;;11.872663462272065;73.448004882887
71642;BME280;60657;50.122;14.468;2022-11-11T10:34:02;99948.0834014403;;;12.008850232700084;73.13710231174181
71642;BME280;60657;50.122;14.468;2022-11-11T10:37:23;99940.56120269983;;;12.032883192187384;73.36789501792936
71642;BME280;60657;50.122;14.468;2022-11-11T10:40:47;99940.50750873947;;;11.942092011902034;73.52811474784467
71642;BME280;60657;50.122;14.468;2022-11-11T10:44:17;99938.95770047087;;;12.102311741817353;73.05508506904708
71642;BME280;60657;50.122;14.468;2022-11-11T10:47:37;99947.29517025265;;;12.02754253452354;73.4060425726711
71642;BME280;60657;50.122;14.468;2022-11-11T10:50:59;99948.24296745111;;;12.171740291447321;73.17524986648355
71642;BME280;60657;50.122;14.468;2022-11-11T10:54:15;99958.34398032757;;;12.206454566262302;73.1103990234226
71642;BME280;60657;50.122;14.468;2022-11-11T10:57:35;99945.71779854376;;;12.121004043640802;73.30304417486839
71642;BME280;60657;50.122;14.468;2022-11-11T11:00:59;99954.89773564567;;;12.129015030136571;73.97444113832303
71642;BME280;60657;50.122;14.468;2022-11-11T11:04:19;99955.97466702882;;;12.297245746547645;73.05317769130998
71642;BME280;60657;50.122;14.468;2022-11-11T11:07:43;99950.0310220409;;;12.158388647287708;73.27824826428626
71642;BME280;60657;50.122;14.468;2022-11-11T11:11:03;99946.81878032265;;;12.302586404211489;73.19241626611735
71642;BME280;60657;50.122;14.468;2022-11-11T11:14:26;99945.3120310664;;;12.38536659800107;73.14663920042726
71642;BME280;60657;50.122;14.468;2022-11-11T11:17:48;99943.6786123763;;;12.430762188143738;72.99404898146028
71642;BME280;60657;50.122;14.468;2022-11-11T11:21:09;99943.87395128116;;;12.524223697261007;72.64881361104753
71642;BME280;60657;50.122;14.468;2022-11-11T11:24:24;99937.2857091732;;;12.537575341420613;72.44090943770505
71642;BME280;60657;50.122;14.468;2022-11-11T11:27:40;99928.8721224826;;;12.502861066605632;72.70984969863432
71642;BME280;60657;50.122;14.468;2022-11-11T11:30:58;99936.46793068883;;;12.636377508201726;72.43137254901961
71642;BME280;60657;50.122;14.468;2022-11-11T11:34:13;99922.2360117977;;;12.561608300907913;72.43709468223086
71642;BME280;60657;50.122;14.468;2022-11-11T11:37:27;99928.17162221906;;;12.438773174639508;72.79568169680323
71642;BME280;60657;50.122;14.468;2022-11-11T11:40:45;99924.14859409105;;;12.724498359655144;72.37987335011826
71642;BME280;60657;50.122;14.468;2022-11-11T11:44:02;99918.32787564087;;;12.812619211108569;72.08804455634395
71642;BME280;60657;50.122;14.468;2022-11-11T11:47:19;99929.39498332383;;;12.903410391393912;71.4299992370489
71642;BME280;60657;50.122;14.468;2022-11-11T11:50:49;99921.82495799733;;;12.791256580453194;71.58640421149005